Time;durP1;ratioP1;P1;durP2;ratioP2;P2;SDS_P1;SDS_P2;PMS_P1;PMS_P2;Temp;Humidity;BMP_temperature;BMP_pressure;BME280_temperature;BME280_humidity;BME280_pressure;Samples;Min_cycle;Max_cycle;Signal;HPM_P1;HPM_P2
2021/11/25 00:01:50;;;;;;;27.10;16.60;;;7.10;99.90;;;;;;5035392;28;20454;-73
2021/11/25 00:04:16;;;;;;;29.73;16.63;;;7.20;99.90;;;;;;5035729;28;20419;-72
2021/11/25 00:06:42;;;;;;;27.05;15.88;;;7.20;99.90;;;;;;5035740;28;20017;-71
2021/11/25 00:09:08;;;;;;;25.92;15.40;;;7.10;99.90;;;;;;5035653;28;20022;-74
2021/11/25 00:11:33;;;;;;;25.95;15.57;;;7.10;99.90;;;;;;5036087;28;20053;-72
2021/11/25 00:13:59;;;;;;;30.88;16.20;;;7.20;99.90;;;;;;5035845;28;20056;-70
2021/11/25 00:16:25;;;;;;;25.33;15.25;;;7.30;99.90;;;;;;5035518;28;20025;-73
2021/11/25 00:18:51;;;;;;;25.42;15.13;;;7.30;99.90;;;;;;5035792;28;20025;-73
2021/11/25 00:21:16;;;;;;;27.50;15.05;;;7.40;99.90;;;;;;5035416;28;20029;-72
2021/11/25 00:23:43;;;;;;;22.95;14.65;;;7.50;99.90;;;;;;5035381;28;20479;-72
2021/11/25 00:26:10;;;;;;;27.60;15.20;;;7.60;99.90;;;;;;5035876;28;20029;-72
2021/11/25 00:28:36;;;;;;;23.15;14.32;;;7.60;99.90;;;;;;5035311;28;20029;-73
2021/11/25 00:31:02;;;;;;;26.67;15.02;;;7.60;99.90;;;;;;5035456;28;20026;-72
2021/11/25 00:33:28;;;;;;;24.98;14.27;;;7.60;99.90;;;;;;5035790;28;20033;-74
2021/11/25 00:35:54;;;;;;;25.80;14.48;;;7.60;99.90;;;;;;5035458;28;20048;-74
2021/11/25 00:38:20;;;;;;;23.83;13.93;;;7.60;99.90;;;;;;5035150;28;20483;-73
2021/11/25 00:40:45;;;;;;;24.50;15.60;;;7.60;99.90;;;;;;5035104;28;20032;-72
2021/11/25 00:43:11;;;;;;;27.10;14.35;;;7.80;99.90;;;;;;5035345;28;20083;-72
2021/11/25 00:45:37;;;;;;;22.23;14.00;;;7.80;99.90;;;;;;5034975;28;20037;-73
2021/11/25 00:48:03;;;;;;;22.38;14.02;;;7.80;99.90;;;;;;5035243;28;20104;-72
2021/11/25 00:50:29;;;;;;;24.67;14.15;;;7.90;99.90;;;;;;5034850;28;20091;-73
2021/11/25 00:52:55;;;;;;;22.27;14.20;;;7.90;99.90;;;;;;5034871;28;20368;-74
2021/11/25 00:55:21;;;;;;;24.20;13.88;;;7.90;99.90;;;;;;5034791;28;20024;-71
2021/11/25 00:57:47;;;;;;;27.23;15.73;;;7.90;99.90;;;;;;5035205;28;20025;-73
2021/11/25 01:00:16;;;;;;;22.60;13.38;;;7.90;99.90;;;;;;5034502;28;20042;-73
2021/11/25 01:02:43;;;;;;;22.73;13.63;;;7.90;99.90;;;;;;5034506;28;20052;-73
2021/11/25 01:05:09;;;;;;;27.30;15.10;;;7.90;99.90;;;;;;5034597;28;20033;-72
2021/11/25 01:07:35;;;;;;;23.33;14.45;;;7.90;99.90;;;;;;5034601;28;20544;-73
2021/11/25 01:10:04;;;;;;;26.83;15.43;;;7.90;99.90;;;;;;5034499;28;20030;-72
2021/11/25 01:12:30;;;;;;;24.42;13.52;;;7.90;99.90;;;;;;5033166;28;20026;-71
2021/11/25 01:14:56;;;;;;;22.98;14.15;;;7.90;99.90;;;;;;5034459;28;20052;-73
2021/11/25 01:17:21;;;;;;;23.50;15.07;;;7.90;99.90;;;;;;5034383;28;20391;-73
2021/11/25 01:19:47;;;;;;;23.38;14.38;;;7.90;99.90;;;;;;5034374;28;20076;-72
2021/11/25 01:22:13;;;;;;;21.85;14.25;;;7.80;99.90;;;;;;5034602;28;20567;-72
2021/11/25 01:24:38;;;;;;;24.65;13.77;;;7.90;99.90;;;;;;5034297;28;20029;-70
2021/11/25 01:27:04;;;;;;;26.52;15.00;;;7.90;99.90;;;;;;5034182;28;20057;-72
2021/11/25 01:29:30;;;;;;;25.75;14.88;;;7.80;99.90;;;;;;5034365;28;20083;-73
2021/11/25 01:31:56;;;;;;;27.58;16.70;;;7.80;99.90;;;;;;5034681;28;20028;-74
2021/11/25 01:34:21;;;;;;;24.40;15.57;;;7.90;99.90;;;;;;5034361;28;20057;-71
2021/11/25 01:36:47;;;;;;;25.65;15.63;;;7.90;99.90;;;;;;5034026;28;20095;-71
2021/11/25 01:39:13;;;;;;;24.80;15.60;;;7.90;99.90;;;;;;5033976;28;20017;-72
2021/11/25 01:41:39;;;;;;;24.30;15.45;;;7.90;99.90;;;;;;5034237;28;20029;-73
2021/11/25 01:44:05;;;;;;;24.98;15.93;;;7.90;99.90;;;;;;5034179;28;20029;-72
2021/11/25 01:46:31;;;;;;;24.48;15.20;;;7.90;99.90;;;;;;5033897;28;20514;-75
2021/11/25 01:48:57;;;;;;;28.88;15.68;;;7.90;99.90;;;;;;5033790;28;20021;-72
2021/11/25 01:51:24;;;;;;;27.05;16.30;;;7.90;99.90;;;;;;5033672;28;20138;-72
2021/11/25 01:53:50;;;;;;;27.55;16.35;;;7.80;99.90;;;;;;5033971;28;20029;-73
2021/11/25 01:56:17;;;;;;;25.38;15.60;;;7.80;99.90;;;;;;5033714;28;20029;-71
2021/11/25 01:58:44;;;;;;;24.85;15.70;;;7.80;99.90;;;;;;5033853;28;20105;-72
2021/11/25 02:01:12;;;;;;;28.23;15.60;;;7.80;99.90;;;;;;5033337;28;20496;-71
2021/11/25 02:03:39;;;;;;;25.40;14.85;;;7.90;99.90;;;;;;5033540;28;20032;-73
2021/11/25 02:06:05;;;;;;;27.05;15.60;;;7.90;99.90;;;;;;5033529;28;20021;-73
2021/11/25 02:08:31;;;;;;;27.63;14.43;;;7.90;99.90;;;;;;5033512;28;20025;-69
2021/11/25 02:10:58;;;;;;;24.75;15.10;;;7.80;99.90;;;;;;5033381;28;20046;-70
2021/11/25 02:13:24;;;;;;;22.98;14.52;;;7.80;99.90;;;;;;5032625;28;20041;-72
2021/11/25 02:15:51;;;;;;;22.70;14.57;;;7.80;99.90;;;;;;5033412;28;20029;-73
2021/11/25 02:18:19;;;;;;;24.23;15.15;;;7.80;99.90;;;;;;5033366;28;20104;-72
2021/11/25 02:20:51;;;;;;;24.40;15.15;;;7.80;99.90;;;;;;5033308;28;20021;-72
2021/11/25 02:23:18;;;;;;;24.20;14.70;;;7.80;99.90;;;;;;5033365;28;20036;-72
2021/11/25 02:25:45;;;;;;;24.40;14.77;;;7.90;99.90;;;;;;5033278;28;20036;-72
2021/11/25 02:28:11;;;;;;;23.08;14.05;;;7.80;99.90;;;;;;5033228;28;20151;-71
2021/11/25 02:30:37;;;;;;;22.35;13.75;;;7.80;99.90;;;;;;5033692;28;20104;-73
2021/11/25 02:33:03;;;;;;;25.55;15.40;;;7.70;99.90;;;;;;5033224;28;20045;-70
2021/11/25 02:35:32;;;;;;;24.80;14.52;;;7.70;99.90;;;;;;5033175;28;20565;-71
2021/11/25 02:37:59;;;;;;;25.02;15.57;;;7.70;99.90;;;;;;5031908;28;20379;-76
2021/11/25 02:40:37;;;;;;;26.80;16.17;;;7.80;99.90;;;;;;5033138;28;20383;-74
2021/11/25 02:43:10;;;;;;;26.00;15.50;;;7.70;99.90;;;;;;5033683;28;20025;-73
2021/11/25 02:45:58;;;;;;;25.13;15.38;;;7.70;99.90;;;;;;5033703;28;20037;-74
2021/11/25 02:48:36;;;;;;;24.13;15.38;;;7.70;99.90;;;;;;5033076;28;20033;-71
2021/11/25 02:51:02;;;;;;;26.23;15.40;;;7.70;99.90;;;;;;5033515;28;20438;-72
2021/11/25 02:53:30;;;;;;;25.92;15.65;;;7.60;99.90;;;;;;5032965;28;20100;-72
2021/11/25 02:55:58;;;;;;;28.58;16.77;;;7.60;99.90;;;;;;5032941;28;20110;-73
2021/11/25 02:58:25;;;;;;;25.35;16.83;;;7.60;99.90;;;;;;5032885;28;20140;-73
2021/11/25 03:00:52;;;;;;;30.25;19.25;;;7.70;99.90;;;;;;5032683;28;20470;-73
2021/11/25 03:03:18;;;;;;;25.60;15.48;;;7.80;99.90;;;;;;5032872;28;20018;-73
2021/11/25 03:05:47;;;;;;;29.00;16.98;;;7.80;99.90;;;;;;5032878;28;20402;-72
2021/11/25 03:08:13;;;;;;;25.00;15.50;;;7.70;99.90;;;;;;5033384;28;20026;-72
2021/11/25 03:10:41;;;;;;;25.95;15.68;;;7.70;99.90;;;;;;5033057;28;20033;-71
2021/11/25 03:13:09;;;;;;;24.77;14.38;;;7.70;99.90;;;;;;5032795;28;20514;-72
2021/11/25 03:15:37;;;;;;;25.13;15.57;;;7.70;99.90;;;;;;5032779;28;20467;-73
2021/11/25 03:18:04;;;;;;;22.50;14.52;;;7.70;99.90;;;;;;5032800;28;20450;-72
2021/11/25 03:20:30;;;;;;;25.55;15.55;;;7.70;99.90;;;;;;5032737;28;20067;-75
2021/11/25 03:22:56;;;;;;;29.38;16.25;;;7.70;99.90;;;;;;5032985;28;20025;-73
2021/11/25 03:25:22;;;;;;;25.20;14.65;;;7.70;99.90;;;;;;5034901;28;20048;-72
2021/11/25 03:27:49;;;;;;;24.08;14.60;;;7.70;99.90;;;;;;5036468;28;20025;-72
2021/11/25 03:30:15;;;;;;;24.60;14.88;;;7.70;99.90;;;;;;5036606;28;20029;-73
2021/11/25 03:32:41;;;;;;;22.35;14.45;;;7.70;99.90;;;;;;5036353;28;20013;-71
2021/11/25 03:35:07;;;;;;;25.70;15.13;;;7.70;99.90;;;;;;5036307;28;20380;-71
2021/11/25 03:37:34;;;;;;;24.13;16.08;;;7.70;99.90;;;;;;5036298;28;20384;-73
2021/11/25 03:40:00;;;;;;;31.15;17.38;;;7.60;99.90;;;;;;5036452;28;20460;-72
2021/11/25 03:42:25;;;;;;;24.42;15.60;;;7.60;99.90;;;;;;5036166;28;20036;-73
2021/11/25 03:44:52;;;;;;;22.80;15.07;;;7.50;99.90;;;;;;5036144;28;20037;-72
2021/11/25 03:47:18;;;;;;;27.00;16.45;;;7.50;99.90;;;;;;5036345;28;20029;-73
2021/11/25 03:49:43;;;;;;;28.40;16.15;;;7.50;99.90;;;;;;5035966;28;20033;-71
2021/11/25 03:52:09;;;;;;;24.30;15.05;;;7.50;99.90;;;;;;5036246;28;20072;-73
2021/11/25 03:54:35;;;;;;;23.65;15.23;;;7.50;99.90;;;;;;5036237;28;20394;-71
2021/11/25 03:57:00;;;;;;;24.15;14.02;;;7.60;99.90;;;;;;5036110;28;20463;-72
2021/11/25 03:59:26;;;;;;;29.10;16.30;;;7.50;99.90;;;;;;5035858;28;20036;-72
2021/11/25 04:01:52;;;;;;;24.30;15.07;;;7.50;99.90;;;;;;5035415;28;20037;-73
2021/11/25 04:04:18;;;;;;;23.98;16.17;;;7.50;99.90;;;;;;5034520;28;20087;-74
2021/11/25 04:06:43;;;;;;;29.23;16.90;;;7.60;99.90;;;;;;5035739;28;20029;-73
2021/11/25 04:09:09;;;;;;;26.90;16.02;;;7.60;99.90;;;;;;5035668;28;20471;-73
2021/11/25 04:11:34;;;;;;;27.60;15.90;;;7.40;99.90;;;;;;5035599;28;20037;-73
2021/11/25 04:14:03;;;;;;;26.13;15.63;;;7.40;99.90;;;;;;5036168;28;20021;-71
2021/11/25 04:16:29;;;;;;;27.88;16.23;;;7.50;99.90;;;;;;5035809;28;20017;-71
2021/11/25 04:18:55;;;;;;;26.02;15.07;;;7.50;99.90;;;;;;5035600;28;20017;-71
2021/11/25 04:21:21;;;;;;;24.77;14.90;;;7.60;99.90;;;;;;5035488;28;20017;-73
2021/11/25 04:23:46;;;;;;;29.67;15.20;;;7.60;99.90;;;;;;5034194;28;20050;-72
2021/11/25 04:26:12;;;;;;;25.80;15.48;;;7.50;99.90;;;;;;5035410;28;20026;-72
2021/11/25 04:28:38;;;;;;;24.75;16.00;;;7.60;99.90;;;;;;5035616;28;20049;-73
2021/11/25 04:36:32;;;;;;;23.63;14.77;;;7.70;99.90;;;;;;5034655;28;20144;-70
2021/11/25 04:38:58;;;;;;;23.10;15.18;;;7.60;99.90;;;;;;5035143;28;20629;-72
2021/11/25 04:41:24;;;;;;;23.50;14.55;;;7.70;99.90;;;;;;5035401;28;20021;-74
2021/11/25 04:43:50;;;;;;;24.30;13.38;;;7.70;99.90;;;;;;5035357;28;20025;-74
2021/11/25 04:46:16;;;;;;;22.55;14.18;;;7.70;99.90;;;;;;5035288;28;20075;-72
2021/11/25 04:48:41;;;;;;;21.40;13.38;;;7.70;99.90;;;;;;5035250;28;20030;-73
2021/11/25 04:51:07;;;;;;;25.33;14.93;;;7.70;99.90;;;;;;5034853;28;20023;-72
2021/11/25 04:53:33;;;;;;;24.42;13.60;;;7.70;99.90;;;;;;5035457;28;20049;-73
2021/11/25 04:55:59;;;;;;;22.10;15.23;;;7.70;99.90;;;;;;5035403;28;20053;-72
2021/11/25 04:58:25;;;;;;;31.40;15.13;;;7.70;99.90;;;;;;5034723;28;20013;-73
2021/11/25 05:00:51;;;;;;;24.15;14.85;;;7.70;99.90;;;;;;5034556;28;20117;-71
2021/11/25 05:03:16;;;;;;;24.38;14.50;;;7.70;99.90;;;;;;5034941;28;20041;-73
2021/11/25 05:05:43;;;;;;;24.83;15.95;;;7.80;99.90;;;;;;5034631;28;20032;-71
2021/11/25 05:08:09;;;;;;;25.27;15.05;;;7.80;99.90;;;;;;5034875;28;20052;-72
2021/11/25 05:10:35;;;;;;;23.52;15.05;;;7.80;99.90;;;;;;5034495;28;20087;-75
2021/11/25 05:13:01;;;;;;;26.20;15.18;;;7.80;99.90;;;;;;5034816;28;20017;-73
2021/11/25 05:15:27;;;;;;;24.02;14.88;;;7.70;99.90;;;;;;5033204;28;20510;-73
2021/11/25 05:17:53;;;;;;;24.88;14.15;;;7.70;99.90;;;;;;5034937;28;20028;-73
2021/11/25 05:20:19;;;;;;;25.70;15.57;;;7.70;99.90;;;;;;5033052;28;20490;-72
2021/11/25 05:22:46;;;;;;;23.70;14.10;;;7.70;99.90;;;;;;5034632;28;20026;-72
2021/11/25 05:25:13;;;;;;;24.00;15.43;;;7.70;99.90;;;;;;5034528;28;20037;-72
2021/11/25 05:27:39;;;;;;;22.05;13.68;;;7.70;99.90;;;;;;5034755;28;20087;-73
2021/11/25 05:30:07;;;;;;;22.15;13.50;;;7.70;99.90;;;;;;5034117;28;20430;-72
2021/11/25 05:32:33;;;;;;;21.30;13.90;;;7.70;99.90;;;;;;5034406;28;20124;-72
2021/11/25 05:34:58;;;;;;;21.75;13.77;;;7.80;99.90;;;;;;5032839;28;20086;-73
2021/11/25 05:37:24;;;;;;;22.52;13.93;;;7.80;99.90;;;;;;5034606;28;20105;-71
2021/11/25 05:39:50;;;;;;;21.98;13.35;;;7.80;99.90;;;;;;5034010;28;20075;-73
2021/11/25 05:42:15;;;;;;;23.45;13.95;;;7.80;99.90;;;;;;5033960;28;20028;-74
2021/11/25 05:44:43;;;;;;;26.23;13.82;;;7.80;99.90;;;;;;5033898;28;20391;-71
2021/11/25 05:47:08;;;;;;;21.30;13.38;;;7.70;99.90;;;;;;5033727;28;20108;-73
2021/11/25 05:49:34;;;;;;;22.98;14.27;;;7.70;99.90;;;;;;5033795;28;20506;-72
2021/11/25 05:52:00;;;;;;;25.08;14.07;;;7.80;99.90;;;;;;5033723;28;20403;-72
2021/11/25 05:54:26;;;;;;;24.98;14.20;;;7.70;99.90;;;;;;5033732;28;20387;-73
2021/11/25 05:56:52;;;;;;;23.83;13.95;;;7.80;99.90;;;;;;5034008;28;20108;-72
2021/11/25 05:59:17;;;;;;;21.50;14.40;;;7.80;99.90;;;;;;5033576;28;20028;-72
2021/11/25 06:01:43;;;;;;;22.77;12.85;;;7.70;99.90;;;;;;5033426;28;20041;-72
2021/11/25 06:04:09;;;;;;;23.25;14.32;;;7.80;99.90;;;;;;5033583;28;20063;-73
2021/11/25 06:06:34;;;;;;;22.05;14.35;;;7.80;99.90;;;;;;5033845;28;20506;-72
2021/11/25 06:09:00;;;;;;;23.38;13.93;;;7.70;99.90;;;;;;5034036;28;20021;-73
2021/11/25 06:11:26;;;;;;;21.00;13.13;;;7.80;99.90;;;;;;5033992;28;20053;-74
2021/11/25 06:13:51;;;;;;;21.05;12.95;;;7.80;99.90;;;;;;5033522;28;20410;-72
2021/11/25 06:16:17;;;;;;;21.48;12.45;;;7.90;99.90;;;;;;5033398;28;20021;-71
2021/11/25 06:18:43;;;;;;;20.55;12.88;;;7.90;99.90;;;;;;5033389;28;20021;-72
2021/11/25 06:21:08;;;;;;;20.48;13.20;;;7.90;99.90;;;;;;5033648;28;20033;-71
2021/11/25 06:23:35;;;;;;;21.17;12.98;;;7.80;99.90;;;;;;5033669;28;20459;-72
2021/11/25 06:26:01;;;;;;;32.55;13.27;;;7.80;99.90;;;;;;5033611;28;20032;-72
2021/11/25 06:28:27;;;;;;;25.27;14.57;;;7.80;99.90;;;;;;5033240;28;20030;-74
2021/11/25 06:30:52;;;;;;;24.83;14.38;;;7.80;99.90;;;;;;5033173;28;20025;-72
2021/11/25 06:33:18;;;;;;;22.77;13.23;;;7.80;99.90;;;;;;5033464;28;20024;-72
2021/11/25 06:35:44;;;;;;;23.42;13.35;;;7.80;99.90;;;;;;5033204;28;20480;-73
2021/11/25 06:38:09;;;;;;;21.17;13.38;;;7.80;99.90;;;;;;5033168;28;20022;-73
2021/11/25 06:40:36;;;;;;;22.90;14.60;;;7.80;99.90;;;;;;5033159;28;20454;-71
2021/11/25 06:43:06;;;;;;;23.95;14.05;;;7.80;99.90;;;;;;5033098;28;20099;-75
2021/11/25 06:45:32;;;;;;;22.80;13.48;;;7.80;99.90;;;;;;5032999;28;20117;-71
2021/11/25 06:47:57;;;;;;;23.52;14.30;;;7.80;99.90;;;;;;5033061;28;20068;-72
2021/11/25 06:50:25;;;;;;;22.02;14.10;;;7.70;99.90;;;;;;5033011;28;20017;-72
2021/11/25 06:52:51;;;;;;;20.90;14.07;;;7.70;99.90;;;;;;5032985;28;20101;-73
2021/11/25 06:55:18;;;;;;;24.85;14.73;;;7.70;99.90;;;;;;5032990;28;20096;-73
2021/11/25 06:57:48;;;;;;;23.45;14.75;;;7.60;99.90;;;;;;5032916;28;20028;-73
2021/11/25 07:00:15;;;;;;;24.33;16.90;;;7.60;99.90;;;;;;5034946;28;20503;-72
2021/11/25 07:02:42;;;;;;;20.33;13.65;;;7.60;99.90;;;;;;5036981;28;20030;-72
2021/11/25 07:05:08;;;;;;;28.83;17.75;;;7.60;99.90;;;;;;5036906;28;20503;-72
2021/11/25 07:07:35;;;;;;;26.92;18.35;;;7.60;99.90;;;;;;5036903;28;20022;-71
2021/11/25 07:10:03;;;;;;;27.40;17.27;;;7.60;99.90;;;;;;5036874;28;20037;-72
2021/11/25 07:12:28;;;;;;;24.52;14.18;;;7.60;99.90;;;;;;5036757;28;20105;-72
2021/11/25 07:14:54;;;;;;;24.40;14.48;;;7.70;99.90;;;;;;5037003;28;20455;-72
2021/11/25 07:17:19;;;;;;;24.23;14.55;;;7.70;99.90;;;;;;5037204;28;20025;-72
2021/11/25 07:19:45;;;;;;;24.92;15.05;;;7.70;99.90;;;;;;5036644;28;20026;-71
2021/11/25 07:22:11;;;;;;;25.83;14.95;;;7.80;99.90;;;;;;5036890;28;20021;-71
2021/11/25 07:24:37;;;;;;;22.67;13.52;;;7.80;99.90;;;;;;5036570;28;20034;-74
2021/11/25 07:27:03;;;;;;;22.55;14.70;;;7.70;99.90;;;;;;5036524;28;20022;-73
2021/11/25 07:29:29;;;;;;;25.50;15.23;;;7.70;99.90;;;;;;5036499;28;20021;-71
2021/11/25 07:31:55;;;;;;;25.70;15.23;;;7.70;99.90;;;;;;5036364;28;20029;-71
2021/11/25 07:34:21;;;;;;;26.60;16.17;;;7.70;99.90;;;;;;5036121;28;20034;-71
2021/11/25 07:36:47;;;;;;;24.27;15.82;;;7.70;99.90;;;;;;5036328;28;20032;-72
2021/11/25 07:39:13;;;;;;;26.15;15.68;;;7.70;99.90;;;;;;5036341;28;20392;-73
2021/11/25 07:41:39;;;;;;;24.25;14.45;;;7.80;99.90;;;;;;5036214;28;20032;-71
2021/11/25 07:44:06;;;;;;;24.33;13.93;;;7.80;99.90;;;;;;5036200;28;20502;-72
2021/11/25 07:46:32;;;;;;;24.27;14.93;;;7.80;99.90;;;;;;5036183;28;20434;-72
2021/11/25 07:49:00;;;;;;;28.90;15.35;;;7.80;99.90;;;;;;5035890;28;20079;-74
2021/11/25 07:51:25;;;;;;;26.05;15.52;;;7.80;99.90;;;;;;5035493;28;20435;-73
2021/11/25 07:53:51;;;;;;;26.10;14.98;;;7.70;99.90;;;;;;5036048;28;20022;-72
2021/11/25 07:56:17;;;;;;;23.13;13.60;;;7.50;99.90;;;;;;5036022;28;20029;-73
2021/11/25 07:58:42;;;;;;;23.17;14.25;;;7.50;99.90;;;;;;5035870;28;20025;-73
2021/11/25 08:01:09;;;;;;;26.38;15.55;;;7.60;99.90;;;;;;5035570;28;20064;-74
2021/11/25 08:03:35;;;;;;;28.35;15.20;;;7.70;99.90;;;;;;5035874;28;20030;-75
2021/11/25 08:06:01;;;;;;;34.50;15.98;;;7.70;99.90;;;;;;5035798;28;20030;-73
2021/11/25 08:08:26;;;;;;;24.52;13.48;;;7.70;99.90;;;;;;5035754;28;20115;-73
2021/11/25 08:10:52;;;;;;;28.27;16.42;;;7.70;99.90;;;;;;5034736;28;20026;-73
2021/11/25 08:13:18;;;;;;;27.45;17.55;;;7.80;99.90;;;;;;5035515;28;20383;-74
2021/11/25 08:15:43;;;;;;;24.00;16.10;;;7.80;99.90;;;;;;5035593;28;20079;-74
2021/11/25 08:18:09;;;;;;;29.45;16.83;;;7.80;99.90;;;;;;5036247;28;20052;-72
2021/11/25 08:20:35;;;;;;;26.95;16.08;;;7.90;99.90;;;;;;5034787;28;20411;-74
2021/11/25 08:23:00;;;;;;;26.45;16.08;;;7.90;99.90;;;;;;5035358;28;20032;-73
2021/11/25 08:25:28;;;;;;;28.23;17.33;;;7.90;99.90;;;;;;5035039;28;20036;-74
2021/11/25 08:27:56;;;;;;;31.33;19.38;;;7.90;99.90;;;;;;5035170;28;20057;-74
2021/11/25 08:30:23;;;;;;;29.55;18.58;;;7.90;99.90;;;;;;5034992;28;20026;-73
2021/11/25 08:32:49;;;;;;;26.88;16.73;;;7.80;99.90;;;;;;5034700;28;20032;-75
2021/11/25 08:35:15;;;;;;;30.60;18.77;;;7.90;99.90;;;;;;5034895;28;20025;-73
2021/11/25 08:37:42;;;;;;;26.65;17.63;;;7.80;99.90;;;;;;5034928;28;20522;-74
2021/11/25 08:46:06;;;;;;;29.90;18.48;;;7.90;99.90;;;;;;4835414;28;20125;-79
2021/11/25 08:48:31;;;;;;;30.05;17.98;;;8.00;99.90;;;;;;5034599;28;20521;-77
2021/11/25 08:50:57;;;;;;;27.85;17.73;;;8.00;99.90;;;;;;5034635;28;20030;-81
2021/11/25 08:53:23;;;;;;;25.50;15.82;;;8.00;99.90;;;;;;5034751;28;20056;-74
2021/11/25 08:55:50;;;;;;;24.95;16.02;;;8.10;99.90;;;;;;5033865;28;20117;-77
2021/11/25 08:58:16;;;;;;;28.60;17.23;;;8.10;99.90;;;;;;5034334;28;20026;-76
2021/11/25 09:00:42;;;;;;;26.85;18.02;;;8.10;99.90;;;;;;5035177;28;20131;-73
2021/11/25 09:03:08;;;;;;;29.38;17.63;;;8.10;99.90;;;;;;5034386;28;20512;-76
2021/11/25 09:05:34;;;;;;;32.25;18.75;;;8.20;99.90;;;;;;5034341;28;20029;-77
2021/11/25 09:08:00;;;;;;;27.38;17.58;;;8.10;99.90;;;;;;5034673;28;20080;-77
2021/11/25 09:10:26;;;;;;;30.98;18.10;;;8.10;99.90;;;;;;5034068;28;20048;-74
2021/11/25 09:12:53;;;;;;;29.27;18.65;;;8.20;99.90;;;;;;5031583;28;20037;-76
2021/11/25 09:15:19;;;;;;;32.67;19.13;;;8.20;99.90;;;;;;5035175;28;20474;-77
2021/11/25 09:17:45;;;;;;;31.33;18.25;;;8.30;99.90;;;;;;5034357;28;20057;-75
2021/11/25 09:20:12;;;;;;;30.00;18.35;;;8.30;99.90;;;;;;5034446;28;20076;-78
2021/11/25 09:22:38;;;;;;;29.20;19.52;;;8.20;99.90;;;;;;5033845;28;20037;-75
2021/11/25 09:25:05;;;;;;;31.67;18.08;;;8.20;99.90;;;;;;5034333;28;20026;-78
2021/11/25 09:27:31;;;;;;;29.60;17.65;;;8.30;99.90;;;;;;5034053;28;20061;-77
2021/11/25 09:29:57;;;;;;;33.10;18.63;;;8.20;99.90;;;;;;5030348;28;20061;-75
2021/11/25 09:32:23;;;;;;;33.03;19.38;;;8.20;99.90;;;;;;5033997;28;20064;-76
2021/11/25 09:34:49;;;;;;;29.35;18.70;;;8.10;99.90;;;;;;5033022;28;20024;-72
2021/11/25 09:37:14;;;;;;;34.78;19.92;;;8.20;99.90;;;;;;5033277;28;20026;-72
2021/11/25 09:39:40;;;;;;;31.95;19.27;;;8.30;99.90;;;;;;5033669;28;20513;-73
2021/11/25 09:42:06;;;;;;;33.65;19.08;;;8.20;99.90;;;;;;5029331;28;20442;-73
2021/11/25 09:44:31;;;;;;;37.55;20.00;;;8.10;99.90;;;;;;5014422;28;20467;-73
2021/11/25 09:46:59;;;;;;;35.03;20.30;;;8.10;99.90;;;;;;5013976;28;20026;-71
2021/11/25 09:49:27;;;;;;;33.28;19.13;;;8.00;99.90;;;;;;5014458;28;20018;-71
2021/11/25 09:51:54;;;;;;;32.38;19.60;;;7.90;99.90;;;;;;5013530;28;20037;-72
2021/11/25 09:54:20;;;;;;;33.20;20.55;;;7.90;99.90;;;;;;5013282;28;20022;-72
2021/11/25 09:56:47;;;;;;;34.17;19.98;;;8.00;99.90;;;;;;5014046;28;20021;-74
2021/11/25 09:59:13;;;;;;;31.48;20.00;;;7.90;99.90;;;;;;5014044;28;20076;-75
2021/11/25 10:01:39;;;;;;;34.10;20.92;;;8.10;99.90;;;;;;5013968;28;20025;-77
2021/11/25 10:04:05;;;;;;;33.00;20.55;;;8.30;99.90;;;;;;5013557;28;20030;-75
2021/11/25 10:06:33;;;;;;;31.48;20.38;;;8.30;99.90;;;;;;5013957;28;20113;-76
2021/11/25 10:09:00;;;;;;;37.55;21.00;;;8.30;99.90;;;;;;5013277;28;20072;-79
2021/11/25 10:11:31;;;;;;;34.38;20.00;;;8.10;99.90;;;;;;5008231;28;20121;-78
2021/11/25 10:14:09;;;;;;;36.47;20.98;;;8.20;99.90;;;;;;5014101;28;20026;-76
2021/11/25 10:16:43;;;;;;;33.10;21.45;;;8.20;99.90;;;;;;5013379;28;20022;-76
2021/11/25 10:19:15;;;;;;;39.92;24.42;;;8.30;99.90;;;;;;5013956;28;20029;-72
2021/11/25 10:21:44;;;;;;;42.28;23.90;;;8.50;99.90;;;;;;5013259;28;20025;-79
2021/11/25 10:24:10;;;;;;;56.85;31.70;;;8.50;99.90;;;;;;5013270;28;20511;-80
2021/11/25 10:26:36;;;;;;;65.18;38.47;;;8.50;99.90;;;;;;5013757;28;20037;-79
2021/11/25 10:29:10;;;;;;;31.50;20.05;;;8.50;99.90;;;;;;5013192;28;20026;-86
2021/11/25 10:31:39;;;;;;;45.53;28.63;;;8.50;99.90;;;;;;5012698;28;20360;-77
2021/11/25 10:34:15;;;;;;;27.05;16.45;;;8.60;99.90;;;;;;5012891;28;20145;-75
2021/11/25 10:42:19;;;;;;;20.38;12.75;;;9.00;99.90;;;;;;5013625;28;20505;-80
2021/11/25 10:44:47;;;;;;;20.92;12.05;;;9.00;99.90;;;;;;5013248;28;20479;-75
2021/11/25 10:47:14;;;;;;;19.05;12.02;;;9.00;99.90;;;;;;5012974;28;20395;-76
2021/11/25 10:49:54;;;;;;;20.67;12.40;;;8.80;99.90;;;;;;4999276;28;20050;-77
2021/11/25 10:52:37;;;;;;;19.98;13.00;;;8.90;99.90;;;;;;5013473;28;20034;-76
2021/11/25 10:55:08;;;;;;;24.75;12.60;;;8.90;99.90;;;;;;5012882;28;20034;-76
2021/11/25 10:57:41;;;;;;;21.02;11.70;;;8.90;99.90;;;;;;5013348;28;20072;-78
2021/11/25 11:00:11;;;;;;;24.05;12.55;;;9.00;99.90;;;;;;5013284;28;20026;-81
2021/11/25 11:02:39;;;;;;;21.52;12.38;;;9.00;99.90;;;;;;5013551;28;20018;-83
2021/11/25 11:05:10;;;;;;;21.55;11.07;;;9.00;99.90;;;;;;4995605;28;20037;-77
2021/11/25 11:07:39;;;;;;;20.40;11.27;;;8.90;99.90;;;;;;5013107;28;20057;-78
2021/11/25 11:10:26;;;;;;;19.50;11.10;;;9.00;99.90;;;;;;5013129;28;20077;-80
2021/11/25 11:15:49;;;;;;;20.58;11.70;;;9.30;99.90;;;;;;5013200;28;20077;-77
2021/11/25 11:20:47;;;;;;;18.38;11.07;;;9.40;99.90;;;;;;5013891;28;20026;-79
2021/11/25 11:23:16;;;;;;;17.92;10.30;;;9.50;99.90;;;;;;5012472;28;20049;-78
2021/11/25 11:25:42;;;;;;;17.70;9.93;;;9.40;99.90;;;;;;5009484;28;20038;-78
2021/11/25 11:28:10;;;;;;;17.67;10.32;;;9.30;99.90;;;;;;4995418;28;20495;-75
2021/11/25 11:30:37;;;;;;;19.90;10.52;;;9.30;99.90;;;;;;5012208;28;20187;-74
2021/11/25 11:33:10;;;;;;;16.65;9.93;;;9.40;99.90;;;;;;5012149;28;20064;-75
2021/11/25 11:35:37;;;;;;;19.55;10.05;;;9.50;99.90;;;;;;5012484;28;20026;-75
2021/11/25 11:38:03;;;;;;;18.50;9.95;;;9.60;99.90;;;;;;5012474;28;20054;-74
2021/11/25 11:40:32;;;;;;;19.30;10.20;;;9.60;99.90;;;;;;5012235;28;20034;-74
2021/11/25 11:43:00;;;;;;;15.93;8.95;;;9.70;99.90;;;;;;5012487;28;20029;-75
2021/11/25 11:45:28;;;;;;;14.95;9.35;;;9.70;99.90;;;;;;5013234;28;20171;-74
2021/11/25 11:47:57;;;;;;;15.65;8.55;;;9.70;99.90;;;;;;5016688;28;20025;-73
2021/11/25 11:50:36;;;;;;;16.30;7.82;;;9.90;99.90;;;;;;5016509;28;20037;-74
2021/11/25 11:53:06;;;;;;;12.23;6.78;;;10.00;99.90;;;;;;5016201;28;20033;-75
2021/11/25 11:55:37;;;;;;;9.15;5.60;;;10.00;99.90;;;;;;5016602;28;20029;-73
2021/11/25 11:58:30;;;;;;;9.10;4.88;;;10.00;99.90;;;;;;5016813;28;20499;-74
2021/11/25 12:01:14;;;;;;;10.57;5.07;;;10.10;99.90;;;;;;5016477;28;20475;-74
2021/11/25 12:04:03;;;;;;;12.65;5.20;;;10.10;99.90;;;;;;4998509;28;20057;-75
2021/11/25 12:06:40;;;;;;;8.68;4.65;;;10.20;99.90;;;;;;5003442;28;20049;-74
2021/11/25 12:09:15;;;;;;;10.38;4.47;;;10.20;99.90;;;;;;5016298;28;20080;-73
2021/11/25 12:11:48;;;;;;;8.90;4.45;;;10.10;99.90;;;;;;5016436;28;20109;-76
2021/11/25 12:14:23;;;;;;;7.88;3.58;;;10.00;99.90;;;;;;5015925;28;20434;-73
2021/11/25 12:16:58;;;;;;;16.42;9.40;;;9.90;99.90;;;;;;5015913;28;20034;-73
2021/11/25 12:19:31;;;;;;;8.57;3.60;;;9.80;99.90;;;;;;5016124;28;20026;-74
2021/11/25 12:22:14;;;;;;;7.50;3.33;;;9.80;99.90;;;;;;4998214;28;20037;-73
2021/11/25 12:24:51;;;;;;;8.48;4.13;;;9.90;99.90;;;;;;5015807;28;20026;-72
2021/11/25 12:27:21;;;;;;;7.10;3.47;;;9.80;99.90;;;;;;5016021;28;20029;-73
2021/11/25 12:29:59;;;;;;;6.30;3.50;;;9.60;99.90;;;;;;5015673;28;20025;-73
2021/11/25 12:35:14;;;;;;;;;;;9.30;99.90;;;;;;5016586;28;20037;-74
2021/11/25 12:37:58;;;;;;;8.77;4.30;;;9.30;99.90;;;;;;5015528;28;19909;-75
2021/11/25 12:40:24;;;;;;;10.10;5.40;;;9.20;99.90;;;;;;5015767;28;20022;-73
2021/11/25 12:43:06;;;;;;;11.48;5.57;;;9.10;99.90;;;;;;5015517;28;20100;-74
2021/11/25 12:45:36;;;;;;;13.63;6.65;;;9.10;99.90;;;;;;5015351;28;20085;-73
2021/11/25 12:48:05;;;;;;;13.65;5.90;;;9.10;99.90;;;;;;5015344;28;20468;-74
2021/11/25 12:50:33;;;;;;;12.45;6.88;;;9.00;99.90;;;;;;5015773;28;20105;-73
2021/11/25 12:53:11;;;;;;;16.17;7.28;;;9.00;99.90;;;;;;5015526;28;20026;-74
2021/11/25 12:55:38;;;;;;;18.98;8.20;;;8.90;99.90;;;;;;5015527;28;20028;-72
2021/11/25 12:58:05;;;;;;;13.38;7.85;;;8.80;99.90;;;;;;5014372;28;20398;-73
2021/11/25 13:00:33;;;;;;;16.00;8.25;;;8.60;99.90;;;;;;5015061;28;20473;-75
2021/11/25 13:03:09;;;;;;;15.40;9.10;;;8.60;99.90;;;;;;5015001;28;20029;-73
2021/11/25 13:05:38;;;;;;;17.23;8.55;;;8.60;99.90;;;;;;5014956;28;20054;-72